LRCL/CLJ METAR and TAF weather

Enter ICAO airport designator
Station Type Date Time Source
LRCL METAR 2019/12/09 00:30 UTC NOAA

LRCL 090030Z 16003KT 0250 R25/0300N FZFG VV001 M00/M01 Q1015 R07/19//95


Station Type Date Time Source
LRCL Decoded METAR 2019/12/09 00:30 UTC NOAA

Cluj-Napoca, Romania (LRCL) 46-47N 023-34E 413M
Dec 08, 2019 - 07:30 PM EST / 2019.12.09 0030 UTC
Wind: from the SSE (160 degrees) at 3 MPH (3 KT):0
Visibility: less than 1 mile:0
Sky conditions: obscured
Weather: freezing fog
Temperature: 32 F (0 C)
Dew Point: 30 F (-1 C)
Relative Humidity: 92%
Pressure (altimeter): 29.97 in. Hg (1015 hPa)
ob: LRCL 090030Z 16003KT 0250 R25/0300N FZFG VV001 M00/M01 Q1015 R07/19//95
cycle: 0

Station Type Date Time Source
LRCL TAF 2007/05/23 16:57 UTC NOAA

TAF
AMD LRCL 231657Z 231607 VRB02MPS 9999 SCT030 BKN080
TEMPO 1719 VRB15G20MPS 1500 TSRAGR SCT010 BKN020CB OVC080

Example: see airport list